sensor_id;sensor_type;location;lat;lon;timestamp;P1;durP1;ratioP1;P2;durP2;ratioP2
7813;SDS011;3952;48.364;16.022;2023-04-03T00:02:01;3.57;;;3.30;;
7813;SDS011;3952;48.364;16.022;2023-04-03T00:04:28;3.63;;;3.43;;
7813;SDS011;3952;48.364;16.022;2023-04-03T00:06:57;3.40;;;3.20;;
7813;SDS011;3952;48.364;16.022;2023-04-03T00:09:24;3.53;;;3.33;;
7813;SDS011;3952;48.364;16.022;2023-04-03T00:11:51;3.60;;;3.40;;
7813;SDS011;3952;48.364;16.022;2023-04-03T00:14:19;3.20;;;3.00;;
7813;SDS011;3952;48.364;16.022;2023-04-03T00:16:46;3.37;;;3.13;;
7813;SDS011;3952;48.364;16.022;2023-04-03T00:19:13;3.70;;;3.40;;
7813;SDS011;3952;48.364;16.022;2023-04-03T00:21:40;3.10;;;2.90;;
7813;SDS011;3952;48.364;16.022;2023-04-03T00:24:09;3.50;;;3.30;;
7813;SDS011;3952;48.364;16.022;2023-04-03T00:26:36;3.13;;;2.93;;
7813;SDS011;3952;48.364;16.022;2023-04-03T00:29:03;3.03;;;2.83;;
7813;SDS011;3952;48.364;16.022;2023-04-03T00:31:31;3.40;;;3.10;;
7813;SDS011;3952;48.364;16.022;2023-04-03T00:33:58;3.03;;;2.83;;
7813;SDS011;3952;48.364;16.022;2023-04-03T00:36:25;2.90;;;2.80;;
7813;SDS011;3952;48.364;16.022;2023-04-03T00:38:52;2.83;;;2.70;;
7813;SDS011;3952;48.364;16.022;2023-04-03T00:41:21;2.97;;;2.70;;
7813;SDS011;3952;48.364;16.022;2023-04-03T00:43:48;3.03;;;2.83;;
7813;SDS011;3952;48.364;16.022;2023-04-03T00:46:15;3.83;;;2.90;;
7813;SDS011;3952;48.364;16.022;2023-04-03T00:48:43;3.20;;;3.00;;
7813;SDS011;3952;48.364;16.022;2023-04-03T00:51:13;3.30;;;3.03;;
7813;SDS011;3952;48.364;16.022;2023-04-03T00:53:43;3.20;;;3.00;;
7813;SDS011;3952;48.364;16.022;2023-04-03T00:56:13;3.27;;;3.07;;
7813;SDS011;3952;48.364;16.022;2023-04-03T00:58:47;3.30;;;3.10;;
7813;SDS011;3952;48.364;16.022;2023-04-03T01:01:18;3.53;;;3.23;;
7813;SDS011;3952;48.364;16.022;2023-04-03T01:03:49;3.30;;;3.10;;
7813;SDS011;3952;48.364;16.022;2023-04-03T01:06:17;3.43;;;3.23;;
7813;SDS011;3952;48.364;16.022;2023-04-03T01:08:49;3.50;;;3.30;;
7813;SDS011;3952;48.364;16.022;2023-04-03T01:11:17;3.37;;;3.17;;
7813;SDS011;3952;48.364;16.022;2023-04-03T01:13:47;3.30;;;3.03;;
7813;SDS011;3952;48.364;16.022;2023-04-03T01:16:15;3.23;;;3.03;;
7813;SDS011;3952;48.364;16.022;2023-04-03T01:18:42;3.23;;;3.03;;
7813;SDS011;3952;48.364;16.022;2023-04-03T01:21:28;3.10;;;2.90;;
7813;SDS011;3952;48.364;16.022;2023-04-03T01:24:22;3.57;;;3.37;;
7813;SDS011;3952;48.364;16.022;2023-04-03T01:27:00;3.53;;;3.33;;
7813;SDS011;3952;48.364;16.022;2023-04-03T01:29:31;3.73;;;3.43;;
7813;SDS011;3952;48.364;16.022;2023-04-03T01:32:00;3.30;;;3.10;;
7813;SDS011;3952;48.364;16.022;2023-04-03T01:34:28;3.70;;;3.50;;
7813;SDS011;3952;48.364;16.022;2023-04-03T01:36:56;3.40;;;3.20;;
7813;SDS011;3952;48.364;16.022;2023-04-03T01:39:23;3.37;;;3.17;;
7813;SDS011;3952;48.364;16.022;2023-04-03T01:41:50;3.63;;;3.43;;
7813;SDS011;3952;48.364;16.022;2023-04-03T01:44:17;3.43;;;3.23;;
7813;SDS011;3952;48.364;16.022;2023-04-03T01:46:45;3.17;;;2.97;;
7813;SDS011;3952;48.364;16.022;2023-04-03T01:49:14;3.37;;;3.17;;
7813;SDS011;3952;48.364;16.022;2023-04-03T01:51:41;3.20;;;3.00;;
7813;SDS011;3952;48.364;16.022;2023-04-03T01:54:08;3.50;;;3.20;;
7813;SDS011;3952;48.364;16.022;2023-04-03T01:56:35;3.73;;;3.53;;
7813;SDS011;3952;48.364;16.022;2023-04-03T01:59:04;3.73;;;3.43;;
7813;SDS011;3952;48.364;16.022;2023-04-03T02:01:31;3.50;;;3.30;;
7813;SDS011;3952;48.364;16.022;2023-04-03T02:03:58;3.67;;;3.37;;
7813;SDS011;3952;48.364;16.022;2023-04-03T02:06:27;4.13;;;3.47;;
7813;SDS011;3952;48.364;16.022;2023-04-03T02:08:54;4.47;;;3.70;;
7813;SDS011;3952;48.364;16.022;2023-04-03T02:11:21;3.53;;;3.33;;
7813;SDS011;3952;48.364;16.022;2023-04-03T02:13:48;3.80;;;3.50;;
7813;SDS011;3952;48.364;16.022;2023-04-03T02:16:16;3.60;;;3.40;;
7813;SDS011;3952;48.364;16.022;2023-04-03T02:18:43;3.90;;;3.60;;
7813;SDS011;3952;48.364;16.022;2023-04-03T02:21:10;3.90;;;3.53;;
7813;SDS011;3952;48.364;16.022;2023-04-03T02:23:38;3.60;;;3.40;;
7813;SDS011;3952;48.364;16.022;2023-04-03T02:26:06;3.87;;;3.60;;
7813;SDS011;3952;48.364;16.022;2023-04-03T02:28:35;3.73;;;3.53;;
7813;SDS011;3952;48.364;16.022;2023-04-03T02:31:02;4.40;;;3.87;;
7813;SDS011;3952;48.364;16.022;2023-04-03T02:33:31;3.70;;;3.40;;
7813;SDS011;3952;48.364;16.022;2023-04-03T02:35:58;3.40;;;3.20;;
7813;SDS011;3952;48.364;16.022;2023-04-03T02:38:26;3.93;;;3.63;;
7813;SDS011;3952;48.364;16.022;2023-04-03T02:40:57;4.03;;;3.83;;
7813;SDS011;3952;48.364;16.022;2023-04-03T02:43:26;3.27;;;3.07;;
7813;SDS011;3952;48.364;16.022;2023-04-03T02:45:54;3.67;;;3.47;;
7813;SDS011;3952;48.364;16.022;2023-04-03T02:48:21;4.23;;;3.50;;
7813;SDS011;3952;48.364;16.022;2023-04-03T02:50:48;3.90;;;3.60;;
7813;SDS011;3952;48.364;16.022;2023-04-03T02:53:16;3.30;;;3.10;;
7813;SDS011;3952;48.364;16.022;2023-04-03T02:55:44;3.30;;;3.10;;
7813;SDS011;3952;48.364;16.022;2023-04-03T02:58:13;3.37;;;3.17;;
7813;SDS011;3952;48.364;16.022;2023-04-03T03:00:40;3.37;;;3.17;;
7813;SDS011;3952;48.364;16.022;2023-04-03T03:03:07;3.50;;;3.13;;
7813;SDS011;3952;48.364;16.022;2023-04-03T03:05:35;3.70;;;3.40;;
7813;SDS011;3952;48.364;16.022;2023-04-03T03:08:05;3.30;;;3.10;;
7813;SDS011;3952;48.364;16.022;2023-04-03T03:10:33;3.23;;;2.93;;
7813;SDS011;3952;48.364;16.022;2023-04-03T03:13:00;3.30;;;3.10;;
7813;SDS011;3952;48.364;16.022;2023-04-03T03:15:29;3.43;;;3.23;;
7813;SDS011;3952;48.364;16.022;2023-04-03T03:17:56;3.70;;;3.30;;
7813;SDS011;3952;48.364;16.022;2023-04-03T03:20:23;3.67;;;3.47;;
7813;SDS011;3952;48.364;16.022;2023-04-03T03:22:50;3.47;;;3.27;;
7813;SDS011;3952;48.364;16.022;2023-04-03T03:25:17;3.53;;;3.23;;
7813;SDS011;3952;48.364;16.022;2023-04-03T03:27:44;3.77;;;3.53;;
7813;SDS011;3952;48.364;16.022;2023-04-03T03:30:12;3.63;;;3.33;;
7813;SDS011;3952;48.364;16.022;2023-04-03T03:32:40;3.80;;;3.50;;
7813;SDS011;3952;48.364;16.022;2023-04-03T03:35:08;3.90;;;3.60;;
7813;SDS011;3952;48.364;16.022;2023-04-03T03:37:35;3.70;;;3.40;;
7813;SDS011;3952;48.364;16.022;2023-04-03T03:40:03;3.63;;;3.43;;
7813;SDS011;3952;48.364;16.022;2023-04-03T03:42:30;3.47;;;3.27;;
7813;SDS011;3952;48.364;16.022;2023-04-03T03:44:57;3.80;;;3.60;;
7813;SDS011;3952;48.364;16.022;2023-04-03T03:47:25;3.70;;;3.40;;
7813;SDS011;3952;48.364;16.022;2023-04-03T03:49:53;3.60;;;3.40;;
7813;SDS011;3952;48.364;16.022;2023-04-03T03:52:21;3.20;;;3.00;;
7813;SDS011;3952;48.364;16.022;2023-04-03T03:54:48;4.07;;;3.77;;
7813;SDS011;3952;48.364;16.022;2023-04-03T03:57:15;3.87;;;3.50;;
7813;SDS011;3952;48.364;16.022;2023-04-03T03:59:42;4.00;;;3.70;;
7813;SDS011;3952;48.364;16.022;2023-04-03T04:02:09;4.17;;;3.87;;
7813;SDS011;3952;48.364;16.022;2023-04-03T04:04:37;3.77;;;3.47;;
7813;SDS011;3952;48.364;16.022;2023-04-03T04:07:05;3.67;;;3.37;;
7813;SDS011;3952;48.364;16.022;2023-04-03T04:09:33;3.80;;;3.60;;
7813;SDS011;3952;48.364;16.022;2023-04-03T04:12:00;4.00;;;3.70;;
7813;SDS011;3952;48.364;16.022;2023-04-03T04:14:27;4.07;;;3.77;;
7813;SDS011;3952;48.364;16.022;2023-04-03T04:16:54;3.70;;;3.50;;
7813;SDS011;3952;48.364;16.022;2023-04-03T04:19:21;4.10;;;3.80;;
7813;SDS011;3952;48.364;16.022;2023-04-03T04:21:49;3.70;;;3.50;;
7813;SDS011;3952;48.364;16.022;2023-04-03T04:24:17;3.80;;;3.60;;
7813;SDS011;3952;48.364;16.022;2023-04-03T04:26:44;3.70;;;3.40;;
7813;SDS011;3952;48.364;16.022;2023-04-03T04:29:12;4.03;;;3.73;;
7813;SDS011;3952;48.364;16.022;2023-04-03T04:31:39;3.90;;;3.53;;
7813;SDS011;3952;48.364;16.022;2023-04-03T04:34:06;3.60;;;3.30;;
7813;SDS011;3952;48.364;16.022;2023-04-03T04:36:33;4.13;;;3.40;;
7813;SDS011;3952;48.364;16.022;2023-04-03T04:39:00;4.07;;;3.83;;
7813;SDS011;3952;48.364;16.022;2023-04-03T04:41:29;4.30;;;3.90;;
7813;SDS011;3952;48.364;16.022;2023-04-03T04:43:56;3.73;;;3.43;;
7813;SDS011;3952;48.364;16.022;2023-04-03T04:46:23;3.67;;;3.43;;
7813;SDS011;3952;48.364;16.022;2023-04-03T04:48:51;3.60;;;3.40;;
7813;SDS011;3952;48.364;16.022;2023-04-03T04:51:18;3.83;;;3.53;;
7813;SDS011;3952;48.364;16.022;2023-04-03T04:53:45;3.80;;;3.50;;
7813;SDS011;3952;48.364;16.022;2023-04-03T04:56:12;4.73;;;3.63;;
7813;SDS011;3952;48.364;16.022;2023-04-03T04:58:41;3.87;;;3.57;;
7813;SDS011;3952;48.364;16.022;2023-04-03T05:01:09;4.13;;;3.80;;
7813;SDS011;3952;48.364;16.022;2023-04-03T05:03:36;3.73;;;3.50;;
7813;SDS011;3952;48.364;16.022;2023-04-03T05:06:04;3.63;;;3.33;;
7813;SDS011;3952;48.364;16.022;2023-04-03T05:08:31;3.43;;;3.20;;
7813;SDS011;3952;48.364;16.022;2023-04-03T05:10:59;3.60;;;3.30;;
7813;SDS011;3952;48.364;16.022;2023-04-03T05:13:26;4.80;;;3.90;;
7813;SDS011;3952;48.364;16.022;2023-04-03T05:15:56;4.00;;;3.60;;
7813;SDS011;3952;48.364;16.022;2023-04-03T05:18:23;4.10;;;3.80;;
7813;SDS011;3952;48.364;16.022;2023-04-03T05:20:50;4.13;;;3.60;;
7813;SDS011;3952;48.364;16.022;2023-04-03T05:23:17;3.50;;;3.30;;
7813;SDS011;3952;48.364;16.022;2023-04-03T05:25:45;3.60;;;3.30;;
7813;SDS011;3952;48.364;16.022;2023-04-03T05:28:13;3.80;;;3.50;;
7813;SDS011;3952;48.364;16.022;2023-04-03T05:30:41;3.83;;;3.53;;
7813;SDS011;3952;48.364;16.022;2023-04-03T05:33:09;5.37;;;3.50;;
7813;SDS011;3952;48.364;16.022;2023-04-03T05:35:37;3.47;;;3.17;;
7813;SDS011;3952;48.364;16.022;2023-04-03T05:38:06;3.77;;;3.57;;
7813;SDS011;3952;48.364;16.022;2023-04-03T05:40:33;3.10;;;2.90;;
7813;SDS011;3952;48.364;16.022;2023-04-03T05:43:00;4.00;;;3.17;;
7813;SDS011;3952;48.364;16.022;2023-04-03T05:45:28;3.63;;;3.37;;
7813;SDS011;3952;48.364;16.022;2023-04-03T05:47:56;3.33;;;3.13;;
7813;SDS011;3952;48.364;16.022;2023-04-03T05:50:25;3.60;;;3.40;;
7813;SDS011;3952;48.364;16.022;2023-04-03T05:52:52;3.67;;;3.37;;
7813;SDS011;3952;48.364;16.022;2023-04-03T05:55:23;3.40;;;3.10;;
7813;SDS011;3952;48.364;16.022;2023-04-03T05:57:51;3.30;;;3.10;;
7813;SDS011;3952;48.364;16.022;2023-04-03T06:00:18;3.40;;;3.10;;
7813;SDS011;3952;48.364;16.022;2023-04-03T06:02:46;3.30;;;2.80;;
7813;SDS011;3952;48.364;16.022;2023-04-03T06:05:13;2.90;;;2.70;;
7813;SDS011;3952;48.364;16.022;2023-04-03T06:07:42;3.40;;;3.10;;
7813;SDS011;3952;48.364;16.022;2023-04-03T06:10:10;3.47;;;3.10;;
7813;SDS011;3952;48.364;16.022;2023-04-03T06:12:38;3.33;;;3.03;;
7813;SDS011;3952;48.364;16.022;2023-04-03T06:15:05;3.10;;;2.90;;
7813;SDS011;3952;48.364;16.022;2023-04-03T06:17:35;3.20;;;3.00;;
7813;SDS011;3952;48.364;16.022;2023-04-03T06:20:02;5.03;;;3.10;;
7813;SDS011;3952;48.364;16.022;2023-04-03T06:22:30;3.57;;;3.27;;
7813;SDS011;3952;48.364;16.022;2023-04-03T06:24:59;4.23;;;3.17;;
7813;SDS011;3952;48.364;16.022;2023-04-03T06:27:26;3.40;;;3.20;;
7813;SDS011;3952;48.364;16.022;2023-04-03T06:29:53;3.40;;;3.10;;
7813;SDS011;3952;48.364;16.022;2023-04-03T06:32:21;3.37;;;3.17;;
7813;SDS011;3952;48.364;16.022;2023-04-03T06:34:48;3.27;;;3.07;;
7813;SDS011;3952;48.364;16.022;2023-04-03T06:37:16;4.00;;;3.70;;
7813;SDS011;3952;48.364;16.022;2023-04-03T06:39:45;4.43;;;4.03;;
7813;SDS011;3952;48.364;16.022;2023-04-03T06:42:14;5.47;;;5.07;;
7813;SDS011;3952;48.364;16.022;2023-04-03T06:44:41;3.90;;;3.60;;
7813;SDS011;3952;48.364;16.022;2023-04-03T06:47:09;3.23;;;3.03;;
7813;SDS011;3952;48.364;16.022;2023-04-03T06:49:38;3.37;;;3.07;;
7813;SDS011;3952;48.364;16.022;2023-04-03T06:52:05;3.53;;;3.23;;
7813;SDS011;3952;48.364;16.022;2023-04-03T06:54:32;3.67;;;3.43;;
7813;SDS011;3952;48.364;16.022;2023-04-03T06:57:00;3.00;;;2.80;;
7813;SDS011;3952;48.364;16.022;2023-04-03T06:59:28;3.53;;;3.23;;
7813;SDS011;3952;48.364;16.022;2023-04-03T07:01:55;3.20;;;2.90;;
7813;SDS011;3952;48.364;16.022;2023-04-03T07:04:24;3.43;;;2.90;;
7813;SDS011;3952;48.364;16.022;2023-04-03T07:06:51;3.30;;;3.00;;
7813;SDS011;3952;48.364;16.022;2023-04-03T07:09:19;3.60;;;3.30;;
7813;SDS011;3952;48.364;16.022;2023-04-03T07:11:46;3.00;;;2.80;;
7813;SDS011;3952;48.364;16.022;2023-04-03T07:14:13;3.30;;;2.97;;
7813;SDS011;3952;48.364;16.022;2023-04-03T07:16:42;2.87;;;2.57;;
7813;SDS011;3952;48.364;16.022;2023-04-03T07:19:09;3.17;;;2.80;;
7813;SDS011;3952;48.364;16.022;2023-04-03T07:21:37;3.17;;;2.87;;
7813;SDS011;3952;48.364;16.022;2023-04-03T07:24:04;2.90;;;2.70;;
7813;SDS011;3952;48.364;16.022;2023-04-03T07:26:31;3.00;;;2.77;;
7813;SDS011;3952;48.364;16.022;2023-04-03T07:28:59;3.33;;;3.00;;
7813;SDS011;3952;48.364;16.022;2023-04-03T07:31:26;3.33;;;3.07;;
7813;SDS011;3952;48.364;16.022;2023-04-03T07:33:54;3.63;;;3.00;;
7813;SDS011;3952;48.364;16.022;2023-04-03T07:36:22;3.23;;;3.03;;
7813;SDS011;3952;48.364;16.022;2023-04-03T07:38:49;3.20;;;3.00;;
7813;SDS011;3952;48.364;16.022;2023-04-03T07:41:17;2.87;;;2.67;;
7813;SDS011;3952;48.364;16.022;2023-04-03T07:43:47;3.30;;;3.10;;
7813;SDS011;3952;48.364;16.022;2023-04-03T07:46:15;3.10;;;2.90;;
7813;SDS011;3952;48.364;16.022;2023-04-03T07:48:43;3.33;;;3.03;;
7813;SDS011;3952;48.364;16.022;2023-04-03T07:51:12;2.87;;;2.67;;
7813;SDS011;3952;48.364;16.022;2023-04-03T07:53:40;3.13;;;2.93;;
7813;SDS011;3952;48.364;16.022;2023-04-03T07:56:07;3.13;;;2.70;;
7813;SDS011;3952;48.364;16.022;2023-04-03T07:58:34;3.10;;;2.90;;
7813;SDS011;3952;48.364;16.022;2023-04-03T08:01:02;2.70;;;2.50;;
7813;SDS011;3952;48.364;16.022;2023-04-03T08:03:30;2.63;;;2.53;;
7813;SDS011;3952;48.364;16.022;2023-04-03T08:06:01;3.83;;;2.63;;
7813;SDS011;3952;48.364;16.022;2023-04-03T08:08:31;2.70;;;2.50;;
7813;SDS011;3952;48.364;16.022;2023-04-03T08:10:59;2.83;;;2.63;;
7813;SDS011;3952;48.364;16.022;2023-04-03T08:13:30;3.03;;;2.80;;
7813;SDS011;3952;48.364;16.022;2023-04-03T08:15:57;2.50;;;2.40;;
7813;SDS011;3952;48.364;16.022;2023-04-03T08:18:33;2.43;;;2.33;;
7813;SDS011;3952;48.364;16.022;2023-04-03T08:21:00;2.80;;;2.60;;
7813;SDS011;3952;48.364;16.022;2023-04-03T08:23:32;3.07;;;2.87;;
7813;SDS011;3952;48.364;16.022;2023-04-03T08:26:04;3.10;;;2.80;;
7813;SDS011;3952;48.364;16.022;2023-04-03T08:28:33;2.90;;;2.70;;
7813;SDS011;3952;48.364;16.022;2023-04-03T08:31:02;6.20;;;3.63;;
7813;SDS011;3952;48.364;16.022;2023-04-03T08:33:30;3.53;;;3.10;;
7813;SDS011;3952;48.364;16.022;2023-04-03T08:35:58;4.07;;;3.30;;
7813;SDS011;3952;48.364;16.022;2023-04-03T08:38:26;3.30;;;3.10;;
7813;SDS011;3952;48.364;16.022;2023-04-03T08:41:01;3.07;;;2.77;;
7813;SDS011;3952;48.364;16.022;2023-04-03T08:43:33;3.33;;;3.07;;
7813;SDS011;3952;48.364;16.022;2023-04-03T08:46:10;3.53;;;2.50;;
7813;SDS011;3952;48.364;16.022;2023-04-03T08:48:41;2.60;;;2.40;;
7813;SDS011;3952;48.364;16.022;2023-04-03T08:51:10;3.70;;;2.67;;
7813;SDS011;3952;48.364;16.022;2023-04-03T08:53:42;5.13;;;2.10;;
7813;SDS011;3952;48.364;16.022;2023-04-03T08:56:14;2.77;;;2.63;;
7813;SDS011;3952;48.364;16.022;2023-04-03T08:58:45;3.33;;;2.90;;
7813;SDS011;3952;48.364;16.022;2023-04-03T09:01:19;3.63;;;3.03;;
7813;SDS011;3952;48.364;16.022;2023-04-03T09:03:47;3.20;;;3.00;;
7813;SDS011;3952;48.364;16.022;2023-04-03T09:06:15;3.20;;;2.90;;
7813;SDS011;3952;48.364;16.022;2023-04-03T09:08:47;2.67;;;2.47;;
7813;SDS011;3952;48.364;16.022;2023-04-03T09:11:33;2.87;;;2.67;;
7813;SDS011;3952;48.364;16.022;2023-04-03T09:14:11;2.20;;;2.10;;
7813;SDS011;3952;48.364;16.022;2023-04-03T09:16:46;3.40;;;2.37;;
7813;SDS011;3952;48.364;16.022;2023-04-03T09:19:21;3.00;;;2.80;;
7813;SDS011;3952;48.364;16.022;2023-04-03T09:21:54;8.27;;;2.63;;
7813;SDS011;3952;48.364;16.022;2023-04-03T09:24:23;2.40;;;2.30;;
7813;SDS011;3952;48.364;16.022;2023-04-03T09:26:53;2.30;;;2.10;;
7813;SDS011;3952;48.364;16.022;2023-04-03T09:29:25;2.90;;;2.60;;
7813;SDS011;3952;48.364;16.022;2023-04-03T09:31:54;2.97;;;2.77;;
7813;SDS011;3952;48.364;16.022;2023-04-03T09:34:26;2.70;;;2.50;;
7813;SDS011;3952;48.364;16.022;2023-04-03T09:36:56;2.50;;;2.30;;
7813;SDS011;3952;48.364;16.022;2023-04-03T09:39:25;2.37;;;2.17;;
7813;SDS011;3952;48.364;16.022;2023-04-03T09:42:00;1.93;;;1.83;;
7813;SDS011;3952;48.364;16.022;2023-04-03T09:44:30;2.07;;;1.97;;
7813;SDS011;3952;48.364;16.022;2023-04-03T09:46:58;2.67;;;2.57;;
7813;SDS011;3952;48.364;16.022;2023-04-03T09:49:26;2.47;;;2.20;;
7813;SDS011;3952;48.364;16.022;2023-04-03T09:51:53;2.30;;;2.10;;
7813;SDS011;3952;48.364;16.022;2023-04-03T09:54:24;1.73;;;1.70;;
7813;SDS011;3952;48.364;16.022;2023-04-03T09:57:03;2.17;;;2.03;;
7813;SDS011;3952;48.364;16.022;2023-04-03T09:59:33;2.30;;;2.10;;
7813;SDS011;3952;48.364;16.022;2023-04-03T10:02:02;2.40;;;2.10;;
7813;SDS011;3952;48.364;16.022;2023-04-03T10:04:42;2.17;;;2.07;;
7813;SDS011;3952;48.364;16.022;2023-04-03T10:07:30;1.90;;;1.77;;
7813;SDS011;3952;48.364;16.022;2023-04-03T10:10:01;2.00;;;1.80;;
7813;SDS011;3952;48.364;16.022;2023-04-03T10:12:31;2.33;;;1.80;;
7813;SDS011;3952;48.364;16.022;2023-04-03T10:14:59;1.60;;;1.57;;
7813;SDS011;3952;48.364;16.022;2023-04-03T10:17:30;2.17;;;1.70;;
7813;SDS011;3952;48.364;16.022;2023-04-03T10:20:21;2.00;;;1.90;;
7813;SDS011;3952;48.364;16.022;2023-04-03T10:23:00;1.60;;;1.50;;
7813;SDS011;3952;48.364;16.022;2023-04-03T10:25:38;2.03;;;1.90;;
7813;SDS011;3952;48.364;16.022;2023-04-03T10:28:10;2.30;;;2.10;;
7813;SDS011;3952;48.364;16.022;2023-04-03T10:30:46;2.63;;;1.90;;
7813;SDS011;3952;48.364;16.022;2023-04-03T10:33:27;3.63;;;1.83;;
7813;SDS011;3952;48.364;16.022;2023-04-03T10:36:06;2.07;;;1.87;;
7813;SDS011;3952;48.364;16.022;2023-04-03T10:38:41;2.13;;;2.00;;
7813;SDS011;3952;48.364;16.022;2023-04-03T10:41:16;2.03;;;1.93;;
7813;SDS011;3952;48.364;16.022;2023-04-03T10:43:53;3.90;;;2.20;;
7813;SDS011;3952;48.364;16.022;2023-04-03T10:46:27;2.10;;;2.00;;
7813;SDS011;3952;48.364;16.022;2023-04-03T10:49:04;4.13;;;2.17;;
7813;SDS011;3952;48.364;16.022;2023-04-03T10:51:41;2.30;;;2.10;;
7813;SDS011;3952;48.364;16.022;2023-04-03T10:54:12;3.30;;;1.87;;
7813;SDS011;3952;48.364;16.022;2023-04-03T10:56:44;2.10;;;2.00;;
7813;SDS011;3952;48.364;16.022;2023-04-03T10:59:21;2.10;;;2.00;;
7813;SDS011;3952;48.364;16.022;2023-04-03T11:01:52;2.13;;;2.03;;
7813;SDS011;3952;48.364;16.022;2023-04-03T11:04:22;2.23;;;2.03;;
7813;SDS011;3952;48.364;16.022;2023-04-03T11:06:55;2.53;;;2.37;;
7813;SDS011;3952;48.364;16.022;2023-04-03T11:09:27;2.30;;;2.20;;
7813;SDS011;3952;48.364;16.022;2023-04-03T11:12:00;2.23;;;2.10;;
7813;SDS011;3952;48.364;16.022;2023-04-03T11:14:34;2.60;;;1.63;;
7813;SDS011;3952;48.364;16.022;2023-04-03T11:17:05;2.17;;;2.03;;
7813;SDS011;3952;48.364;16.022;2023-04-03T11:19:42;2.10;;;2.00;;
7813;SDS011;3952;48.364;16.022;2023-04-03T11:22:15;3.73;;;2.43;;
7813;SDS011;3952;48.364;16.022;2023-04-03T11:24:51;2.40;;;2.20;;
7813;SDS011;3952;48.364;16.022;2023-04-03T11:27:23;4.80;;;2.40;;
7813;SDS011;3952;48.364;16.022;2023-04-03T11:29:53;2.37;;;2.10;;
7813;SDS011;3952;48.364;16.022;2023-04-03T11:32:28;2.20;;;2.10;;
7813;SDS011;3952;48.364;16.022;2023-04-03T11:35:18;7.23;;;2.77;;
7813;SDS011;3952;48.364;16.022;2023-04-03T11:37:47;2.57;;;2.43;;
7813;SDS011;3952;48.364;16.022;2023-04-03T11:40:19;3.63;;;2.77;;
7813;SDS011;3952;48.364;16.022;2023-04-03T11:42:52;2.33;;;2.20;;
7813;SDS011;3952;48.364;16.022;2023-04-03T11:45:25;2.17;;;2.07;;
7813;SDS011;3952;48.364;16.022;2023-04-03T11:47:59;2.40;;;2.30;;
7813;SDS011;3952;48.364;16.022;2023-04-03T11:53:27;2.43;;;2.30;;
7813;SDS011;3952;48.364;16.022;2023-04-03T11:55:57;2.40;;;2.13;;
7813;SDS011;3952;48.364;16.022;2023-04-03T11:58:30;2.50;;;2.30;;
7813;SDS011;3952;48.364;16.022;2023-04-03T12:01:01;2.23;;;2.13;;
7813;SDS011;3952;48.364;16.022;2023-04-03T12:03:35;2.30;;;2.20;;
7813;SDS011;3952;48.364;16.022;2023-04-03T12:12:29;2.50;;;2.30;;
7813;SDS011;3952;48.364;16.022;2023-04-03T12:17:47;2.40;;;2.30;;
7813;SDS011;3952;48.364;16.022;2023-04-03T12:23:25;2.37;;;2.27;;
7813;SDS011;3952;48.364;16.022;2023-04-03T12:25:59;3.00;;;2.20;;
7813;SDS011;3952;48.364;16.022;2023-04-03T12:28:34;2.63;;;2.43;;
7813;SDS011;3952;48.364;16.022;2023-04-03T12:31:05;4.10;;;2.40;;
7813;SDS011;3952;48.364;16.022;2023-04-03T12:33:42;3.20;;;2.53;;
7813;SDS011;3952;48.364;16.022;2023-04-03T12:36:26;2.80;;;2.33;;
7813;SDS011;3952;48.364;16.022;2023-04-03T12:42:29;2.57;;;2.47;;
7813;SDS011;3952;48.364;16.022;2023-04-03T12:45:08;2.47;;;2.20;;
7813;SDS011;3952;48.364;16.022;2023-04-03T12:47:43;2.50;;;2.30;;
7813;SDS011;3952;48.364;16.022;2023-04-03T12:50:18;3.77;;;2.40;;
7813;SDS011;3952;48.364;16.022;2023-04-03T12:52:52;2.30;;;2.20;;
7813;SDS011;3952;48.364;16.022;2023-04-03T12:55:24;2.30;;;2.20;;
7813;SDS011;3952;48.364;16.022;2023-04-03T12:57:52;2.10;;;1.80;;
7813;SDS011;3952;48.364;16.022;2023-04-03T13:00:20;2.20;;;2.10;;
7813;SDS011;3952;48.364;16.022;2023-04-03T13:02:59;2.13;;;2.03;;
7813;SDS011;3952;48.364;16.022;2023-04-03T13:05:29;2.40;;;2.30;;
7813;SDS011;3952;48.364;16.022;2023-04-03T13:07:58;2.73;;;2.47;;
7813;SDS011;3952;48.364;16.022;2023-04-03T13:10:28;2.70;;;2.00;;
7813;SDS011;3952;48.364;16.022;2023-04-03T13:12:56;2.20;;;2.10;;
7813;SDS011;3952;48.364;16.022;2023-04-03T13:15:26;2.40;;;2.30;;
7813;SDS011;3952;48.364;16.022;2023-04-03T13:17:55;2.33;;;2.23;;
7813;SDS011;3952;48.364;16.022;2023-04-03T13:20:24;2.33;;;2.20;;
7813;SDS011;3952;48.364;16.022;2023-04-03T13:22:55;2.20;;;2.10;;
7813;SDS011;3952;48.364;16.022;2023-04-03T13:25:25;2.30;;;2.20;;
7813;SDS011;3952;48.364;16.022;2023-04-03T13:27:56;2.30;;;2.10;;
7813;SDS011;3952;48.364;16.022;2023-04-03T13:30:27;3.13;;;2.20;;
7813;SDS011;3952;48.364;16.022;2023-04-03T13:32:56;2.23;;;2.13;;
7813;SDS011;3952;48.364;16.022;2023-04-03T13:35:29;2.00;;;1.90;;
7813;SDS011;3952;48.364;16.022;2023-04-03T13:38:02;2.03;;;1.83;;
7813;SDS011;3952;48.364;16.022;2023-04-03T13:40:32;3.57;;;2.27;;
7813;SDS011;3952;48.364;16.022;2023-04-03T13:43:04;2.40;;;2.20;;
7813;SDS011;3952;48.364;16.022;2023-04-03T13:45:53;3.13;;;2.07;;
7813;SDS011;3952;48.364;16.022;2023-04-03T13:48:25;2.30;;;2.00;;
7813;SDS011;3952;48.364;16.022;2023-04-03T13:50:53;1.63;;;1.53;;
7813;SDS011;3952;48.364;16.022;2023-04-03T13:53:25;1.83;;;1.80;;
7813;SDS011;3952;48.364;16.022;2023-04-03T13:55:55;2.30;;;2.10;;
7813;SDS011;3952;48.364;16.022;2023-04-03T13:58:26;2.20;;;2.00;;
7813;SDS011;3952;48.364;16.022;2023-04-03T14:00:55;3.63;;;2.40;;
7813;SDS011;3952;48.364;16.022;2023-04-03T14:03:36;2.37;;;2.27;;
7813;SDS011;3952;48.364;16.022;2023-04-03T14:06:08;2.00;;;1.90;;
7813;SDS011;3952;48.364;16.022;2023-04-03T14:08:39;2.27;;;2.07;;
7813;SDS011;3952;48.364;16.022;2023-04-03T14:11:09;2.63;;;2.20;;
7813;SDS011;3952;48.364;16.022;2023-04-03T14:13:41;2.23;;;2.13;;
7813;SDS011;3952;48.364;16.022;2023-04-03T14:16:11;3.87;;;2.00;;
7813;SDS011;3952;48.364;16.022;2023-04-03T14:18:41;1.90;;;1.80;;
7813;SDS011;3952;48.364;16.022;2023-04-03T14:21:10;2.17;;;2.07;;
7813;SDS011;3952;48.364;16.022;2023-04-03T14:23:40;2.40;;;2.20;;
7813;SDS011;3952;48.364;16.022;2023-04-03T14:26:09;3.97;;;2.20;;
7813;SDS011;3952;48.364;16.022;2023-04-03T14:28:38;2.00;;;1.90;;
7813;SDS011;3952;48.364;16.022;2023-04-03T14:31:06;1.93;;;1.83;;
7813;SDS011;3952;48.364;16.022;2023-04-03T14:33:33;2.20;;;2.00;;
7813;SDS011;3952;48.364;16.022;2023-04-03T14:36:02;2.17;;;2.07;;
7813;SDS011;3952;48.364;16.022;2023-04-03T14:38:37;2.47;;;2.10;;
7813;SDS011;3952;48.364;16.022;2023-04-03T14:41:06;2.33;;;2.10;;
7813;SDS011;3952;48.364;16.022;2023-04-03T14:43:34;1.60;;;1.50;;
7813;SDS011;3952;48.364;16.022;2023-04-03T14:46:01;4.00;;;1.97;;
7813;SDS011;3952;48.364;16.022;2023-04-03T14:48:29;1.90;;;1.80;;
7813;SDS011;3952;48.364;16.022;2023-04-03T14:50:56;3.23;;;2.20;;
7813;SDS011;3952;48.364;16.022;2023-04-03T14:53:24;2.13;;;2.03;;
7813;SDS011;3952;48.364;16.022;2023-04-03T14:55:52;2.93;;;2.00;;
7813;SDS011;3952;48.364;16.022;2023-04-03T14:58:20;2.10;;;2.00;;
7813;SDS011;3952;48.364;16.022;2023-04-03T15:00:47;1.93;;;1.80;;
7813;SDS011;3952;48.364;16.022;2023-04-03T15:03:15;2.00;;;1.80;;
7813;SDS011;3952;48.364;16.022;2023-04-03T15:05:44;1.70;;;1.60;;
7813;SDS011;3952;48.364;16.022;2023-04-03T15:08:16;1.67;;;1.57;;
7813;SDS011;3952;48.364;16.022;2023-04-03T15:10:46;2.10;;;2.00;;
7813;SDS011;3952;48.364;16.022;2023-04-03T15:13:15;2.90;;;1.80;;
7813;SDS011;3952;48.364;16.022;2023-04-03T15:15:42;2.07;;;1.77;;
7813;SDS011;3952;48.364;16.022;2023-04-03T15:18:10;1.90;;;1.80;;
7813;SDS011;3952;48.364;16.022;2023-04-03T15:20:42;3.97;;;2.37;;
7813;SDS011;3952;48.364;16.022;2023-04-03T15:23:10;2.63;;;2.10;;
7813;SDS011;3952;48.364;16.022;2023-04-03T15:25:41;1.77;;;1.67;;
7813;SDS011;3952;48.364;16.022;2023-04-03T15:28:09;1.93;;;1.80;;
7813;SDS011;3952;48.364;16.022;2023-04-03T15:30:44;2.20;;;2.00;;
7813;SDS011;3952;48.364;16.022;2023-04-03T15:33:12;1.90;;;1.80;;
7813;SDS011;3952;48.364;16.022;2023-04-03T15:35:40;4.17;;;1.70;;